This is the latest recevied weather packets stored in our database for station/object WA7CUG. If no packets are shown the sender has not sent any weather packets the latest 10 day(s).
| Time | Temp. | Humidity | Pressure | Rain* | Wind** | Luminosity | Snow |
|---|---|---|---|---|---|---|---|
| 1777900930 | 10° C | 73% | 1011 hPa | 0 mm | - | 32 W/m² | - |
| 1777900628 | 8.33° C | 81% | 1011.1 hPa | 0 mm | - | 29 W/m² | - |
| 1777900324 | 8.89° C | 81% | 1011.1 hPa | 0 mm | - | 25 W/m² | - |
| 1777900022 | 9.44° C | 79% | 1010.9 hPa | 0 mm | - | 22 W/m² | - |
| 1777899717 | 8.89° C | 79% | 1010.8 hPa | 0 mm | - | 18 W/m² | - |
| 1777899415 | 8.89° C | 80% | 1010.9 hPa | 0 mm | - | 14 W/m² | - |
| 1777899113 | 8.89° C | 78% | 1010.8 hPa | 0 mm | - | 10 W/m² | - |
| 1777898810 | 9.44° C | 78% | 1011 hPa | 0 mm | - | 7 W/m² | - |
| 1777898508 | 10° C | 73% | 1011 hPa | 0 mm | - | 4 W/m² | - |
| 1777898205 | 8.89° C | 75% | 1010.8 hPa | 0 mm | - | 3 W/m² | - |
| 1777897902 | 9.44° C | 75% | 1010.8 hPa | 0 mm | - | 1 W/m² | - |
| 1777897598 | 8.89° C | 77% | 1010.7 hPa | 0 mm | - | 1 W/m² | - |
| 1777897293 | 8.89° C | 77% | 1010.9 hPa | 0 mm | - | 0 W/m² | - |
| 1777896990 | 8.33° C | 81% | 1010.8 hPa | 0 mm | - | 0 W/m² | - |
| 1777896687 | 8.89° C | 78% | 1010.7 hPa | 0 mm | - | 0 W/m² | - |
| 1777896383 | 8.33° C | 80% | 1010.8 hPa | 0 mm | - | 0 W/m² | - |
| 1777896082 | 7.78° C | 81% | 1010.7 hPa | 0 mm | - | 0 W/m² | - |
| 1777895780 | 8.33° C | 81% | 1010.6 hPa | 0 mm | - | 0 W/m² | - |
| 1777895477 | 8.89° C | 81% | 1010.7 hPa | 0 mm | - | 0 W/m² | - |
| 1777895174 | 8.89° C | 78% | 1010.6 hPa | 0 mm | - | 0 W/m² | - |
| 1777894871 | 9.44° C | 75% | 1010.6 hPa | 0 mm | - | 0 W/m² | - |
| 1777894568 | 8.33° C | 78% | 1010.5 hPa | 0 mm | - | 0 W/m² | - |
| 1777894266 | 9.44° C | 78% | 1010.4 hPa | 0 mm | - | 0 W/m² | - |
| 1777893963 | 9.44° C | 75% | 1010.4 hPa | 0 mm | - | 0 W/m² | - |
| 1777893659 | 8.89° C | 80% | 1010.5 hPa | 0 mm | - | 0 W/m² | - |
* Rain latest hour (hover to see other rain measurements)
** Current wind speed in m/s (hover to see current wind gust speed)